Time;durP1;ratioP1;P1;durP2;ratioP2;P2;SDS_P1;SDS_P2;PMS_P1;PMS_P2;Temp;Humidity;BMP_temperature;BMP_pressure;BME280_temperature;BME280_humidity;BME280_pressure;Samples;Min_cycle;Max_cycle;Signal;HPM_P1;HPM_P2
2022/04/28 00:00:55;;;;;;;22.70;15.85;;;8.60;99.90;;;;;;4978875;28;20080;-60
2022/04/28 00:03:21;;;;;;;26.85;16.10;;;8.50;99.90;;;;;;4990320;28;20054;-57
2022/04/28 00:05:46;;;;;;;28.23;16.85;;;8.50;99.90;;;;;;4987642;28;20046;-56
2022/04/28 00:08:12;;;;;;;28.80;17.73;;;8.40;99.90;;;;;;4983219;28;20046;-58
2022/04/28 00:10:38;;;;;;;23.40;16.65;;;8.30;99.90;;;;;;4985946;28;20038;-58
2022/04/28 00:13:06;;;;;;;32.22;17.45;;;8.20;99.90;;;;;;4969586;28;20685;-57
2022/04/28 00:15:31;;;;;;;26.65;16.70;;;8.20;99.90;;;;;;4987995;28;20030;-57
2022/04/28 00:17:57;;;;;;;30.30;17.67;;;8.30;99.90;;;;;;4985606;28;20038;-57
2022/04/28 00:20:23;;;;;;;26.20;16.88;;;8.20;99.90;;;;;;4982981;28;20034;-56
2022/04/28 00:22:49;;;;;;;26.33;17.15;;;8.20;99.90;;;;;;4989024;28;20092;-55
2022/04/28 00:25:15;;;;;;;24.10;16.98;;;8.20;99.90;;;;;;4991601;28;20026;-57
2022/04/28 00:27:40;;;;;;;26.70;17.55;;;8.20;99.90;;;;;;4987401;28;20035;-58
2022/04/28 00:30:07;;;;;;;29.65;18.27;;;8.10;99.90;;;;;;4982729;28;20125;-58
2022/04/28 00:32:33;;;;;;;23.25;18.00;;;8.10;99.90;;;;;;4984424;28;20081;-60
2022/04/28 00:34:59;;;;;;;25.70;16.92;;;8.00;99.90;;;;;;4962253;28;20088;-57
2022/04/28 00:37:25;;;;;;;34.85;18.15;;;7.90;99.90;;;;;;4982551;28;20484;-57
2022/04/28 00:39:51;;;;;;;26.92;17.58;;;7.80;99.90;;;;;;4989632;28;20026;-57
2022/04/28 00:42:18;;;;;;;23.40;17.08;;;7.70;99.90;;;;;;4984787;28;20096;-56
2022/04/28 00:44:44;;;;;;;35.60;18.17;;;7.60;99.90;;;;;;4988090;28;20466;-57
2022/04/28 00:47:11;;;;;;;27.50;18.45;;;7.50;99.90;;;;;;4988132;28;20038;-57
2022/04/28 00:52:24;;;;;;;31.73;18.33;;;7.40;99.90;;;;;;4984582;28;20054;-51
2022/04/28 00:54:52;;;;;;;27.20;18.67;;;7.30;99.90;;;;;;4985253;28;20468;-57
2022/04/28 00:57:17;;;;;;;25.50;18.55;;;7.30;99.90;;;;;;4989891;28;20030;-59
2022/04/28 00:59:46;;;;;;;29.75;18.33;;;7.20;99.90;;;;;;4982992;28;20484;-59
2022/04/28 01:02:12;;;;;;;29.92;18.73;;;7.10;99.90;;;;;;4987429;28;20034;-60
2022/04/28 01:04:39;;;;;;;27.27;17.67;;;7.10;99.90;;;;;;4989191;28;20030;-56
2022/04/28 01:07:05;;;;;;;32.90;19.77;;;7.10;99.90;;;;;;4991399;28;20065;-57
2022/04/28 01:09:36;;;;;;;32.35;19.23;;;7.00;99.90;;;;;;4989502;28;20056;-57
2022/04/28 01:12:07;;;;;;;27.42;20.05;;;7.00;99.90;;;;;;4969718;28;20050;-58
2022/04/28 01:14:33;;;;;;;32.30;18.80;;;7.00;99.90;;;;;;4981686;28;20034;-56
2022/04/28 01:17:00;;;;;;;30.27;21.13;;;6.90;99.90;;;;;;4993968;28;20037;-57
2022/04/28 01:19:25;;;;;;;26.08;19.58;;;6.90;99.90;;;;;;4984276;28;20037;-50
2022/04/28 01:21:52;;;;;;;30.75;19.80;;;6.80;99.90;;;;;;4989117;28;20030;-57
2022/04/28 01:24:18;;;;;;;27.98;19.95;;;6.80;99.90;;;;;;4993808;28;20110;-59
2022/04/28 01:26:45;;;;;;;32.72;20.70;;;6.80;99.90;;;;;;4989163;28;20034;-57
2022/04/28 01:29:10;;;;;;;26.60;19.00;;;6.80;99.90;;;;;;4983712;28;20389;-60
2022/04/28 01:31:36;;;;;;;27.65;19.17;;;6.80;99.90;;;;;;4987542;28;20097;-55
2022/04/28 01:34:02;;;;;;;29.88;19.40;;;6.70;99.90;;;;;;4985146;28;20484;-57
2022/04/28 01:36:28;;;;;;;34.28;19.45;;;6.70;99.90;;;;;;4988417;28;20479;-60
2022/04/28 01:38:53;;;;;;;31.75;20.92;;;6.70;99.90;;;;;;4987013;28;20041;-55
2022/04/28 01:41:19;;;;;;;29.67;18.88;;;6.60;99.90;;;;;;4987227;28;20042;-54
2022/04/28 01:43:45;;;;;;;30.92;19.70;;;6.60;99.90;;;;;;4990591;28;20056;-57
2022/04/28 01:46:11;;;;;;;29.10;18.27;;;6.50;99.90;;;;;;4985203;28;20019;-57
2022/04/28 01:48:37;;;;;;;27.27;19.25;;;6.50;99.90;;;;;;4990137;28;20034;-59
2022/04/28 01:56:31;;;;;;;26.63;17.80;;;6.40;99.90;;;;;;4988918;28;19976;-57
2022/04/28 01:58:57;;;;;;;31.77;18.60;;;6.40;99.90;;;;;;4986465;28;20400;-60
2022/04/28 02:01:23;;;;;;;30.42;18.38;;;6.40;99.90;;;;;;4987546;28;20550;-57
2022/04/28 02:03:48;;;;;;;33.25;19.45;;;6.30;99.90;;;;;;4990267;28;20574;-59
2022/04/28 02:06:14;;;;;;;32.55;18.88;;;6.30;99.90;;;;;;4986691;28;20031;-55
2022/04/28 02:08:39;;;;;;;33.72;19.65;;;6.30;99.90;;;;;;4989433;28;20472;-57
2022/04/28 02:11:06;;;;;;;34.78;19.92;;;6.30;99.90;;;;;;4990097;28;20109;-57
2022/04/28 02:13:31;;;;;;;32.13;18.52;;;6.20;99.90;;;;;;4974482;28;20732;-58
2022/04/28 02:15:57;;;;;;;25.50;17.85;;;6.20;99.90;;;;;;4991585;28;20034;-57
2022/04/28 02:18:22;;;;;;;27.17;17.95;;;6.20;99.90;;;;;;4990196;28;20168;-56
2022/04/28 02:20:48;;;;;;;32.17;17.58;;;6.30;99.90;;;;;;4985993;28;20530;-57
2022/04/28 02:23:13;;;;;;;27.27;18.73;;;6.30;99.90;;;;;;4988739;28;20034;-59
2022/04/28 02:25:39;;;;;;;34.40;18.90;;;6.30;99.90;;;;;;4988747;28;20038;-58
2022/04/28 02:28:04;;;;;;;32.28;18.77;;;6.30;99.90;;;;;;4989365;28;20044;-57
2022/04/28 02:30:30;;;;;;;31.05;18.83;;;6.30;99.90;;;;;;4983876;28;20072;-58
2022/04/28 02:33:11;;;;;;;29.52;17.15;;;6.40;99.90;;;;;;4990909;28;20053;-58
2022/04/28 02:35:37;;;;;;;33.45;18.10;;;6.50;99.90;;;;;;4989333;28;20061;-58
2022/04/28 02:38:03;;;;;;;28.80;17.80;;;6.50;99.90;;;;;;4983719;28;20037;-58
2022/04/28 02:40:30;;;;;;;29.95;16.65;;;6.50;99.90;;;;;;4993557;28;20112;-55
2022/04/28 02:42:55;;;;;;;28.27;16.95;;;6.60;99.90;;;;;;4983601;28;20022;-58
2022/04/28 02:45:21;;;;;;;25.23;16.15;;;6.60;99.90;;;;;;4997542;28;20026;-58
2022/04/28 02:47:46;;;;;;;26.35;16.35;;;6.60;99.90;;;;;;4999916;28;20496;-56
2022/04/28 02:50:12;;;;;;;28.80;16.48;;;6.60;99.90;;;;;;4983735;28;20030;-57
2022/04/28 02:52:40;;;;;;;31.00;16.48;;;6.60;99.90;;;;;;4990887;28;20033;-58
2022/04/28 02:55:07;;;;;;;29.17;16.42;;;6.50;99.90;;;;;;4987319;28;20088;-58
2022/04/28 02:57:33;;;;;;;34.83;18.23;;;6.50;99.90;;;;;;4989639;28;20029;-58
2022/04/28 02:59:58;;;;;;;27.98;17.52;;;6.40;99.90;;;;;;4990009;28;20033;-56
2022/04/28 03:02:25;;;;;;;27.60;16.23;;;6.40;99.90;;;;;;4988108;28;20516;-62
2022/04/28 03:04:50;;;;;;;26.40;17.25;;;6.40;99.90;;;;;;4993214;28;20037;-58
2022/04/28 03:12:44;;;;;;;27.23;18.13;;;6.30;99.90;;;;;;4957079;28;20053;-59
2022/04/28 03:15:10;;;;;;;29.67;16.88;;;6.20;99.90;;;;;;4979789;28;20039;-58
2022/04/28 03:17:36;;;;;;;27.38;17.33;;;6.20;99.90;;;;;;4986363;28;20041;-58
2022/04/28 03:20:02;;;;;;;27.42;17.00;;;6.10;99.90;;;;;;4994475;28;20027;-60
2022/04/28 03:22:29;;;;;;;29.30;18.50;;;6.10;99.90;;;;;;4972162;28;20027;-59
2022/04/28 03:24:54;;;;;;;27.05;16.20;;;6.10;99.90;;;;;;4987434;28;20038;-58
2022/04/28 03:27:20;;;;;;;24.33;17.00;;;6.10;99.90;;;;;;4986548;28;20034;-54
2022/04/28 03:29:45;;;;;;;32.70;17.83;;;6.10;99.90;;;;;;4989675;28;20042;-58
2022/04/28 03:32:11;;;;;;;27.75;17.92;;;6.10;99.90;;;;;;4990177;28;20041;-60
2022/04/28 03:34:36;;;;;;;26.17;17.45;;;6.10;99.90;;;;;;4987441;28;20088;-56
2022/04/28 03:37:02;;;;;;;31.92;17.65;;;6.10;99.90;;;;;;4987148;28;20117;-58
2022/04/28 03:39:29;;;;;;;30.40;18.73;;;6.10;99.90;;;;;;4987664;28;20117;-55
2022/04/28 03:41:55;;;;;;;36.33;19.75;;;6.10;99.90;;;;;;4984884;28;20031;-58
2022/04/28 03:44:20;;;;;;;32.30;19.77;;;6.10;99.90;;;;;;4988003;28;20031;-60
2022/04/28 03:46:46;;;;;;;34.28;20.95;;;6.10;99.90;;;;;;4989057;28;20062;-58
2022/04/28 03:49:11;;;;;;;33.80;19.73;;;6.10;99.90;;;;;;4988951;28;20408;-55
2022/04/28 03:51:37;;;;;;;30.48;19.73;;;6.10;99.90;;;;;;4988693;28;20503;-54
2022/04/28 03:54:03;;;;;;;29.27;19.13;;;6.10;99.90;;;;;;4986775;28;20113;-57
2022/04/28 03:56:32;;;;;;;30.70;19.20;;;6.00;99.90;;;;;;4987275;28;20595;-55
2022/04/28 03:59:02;;;;;;;29.88;19.00;;;6.00;99.90;;;;;;4985681;28;20030;-58
2022/04/28 04:01:28;;;;;;;37.03;20.50;;;5.90;99.90;;;;;;4987439;28;20109;-53
2022/04/28 04:03:53;;;;;;;35.17;20.38;;;5.90;99.90;;;;;;4990307;28;20026;-59
2022/04/28 04:06:19;;;;;;;32.47;21.50;;;5.80;99.90;;;;;;4987906;28;20093;-59
2022/04/28 04:08:45;;;;;;;33.75;20.58;;;5.70;99.90;;;;;;4989225;28;20026;-58
2022/04/28 04:11:15;;;;;;;30.45;20.23;;;5.70;99.90;;;;;;4987941;28;20069;-57
2022/04/28 04:13:41;;;;;;;36.67;21.70;;;5.70;99.90;;;;;;4983794;28;20041;-57
2022/04/28 04:16:06;;;;;;;30.05;19.63;;;5.70;99.90;;;;;;4988102;28;20034;-57
2022/04/28 04:18:32;;;;;;;39.50;21.08;;;5.70;99.90;;;;;;4991591;28;20495;-58
2022/04/28 04:20:57;;;;;;;31.08;19.30;;;5.70;99.90;;;;;;4989808;28;20062;-54
2022/04/28 04:23:23;;;;;;;31.10;20.10;;;5.80;99.90;;;;;;4990778;28;20026;-60
2022/04/28 04:25:49;;;;;;;33.28;20.30;;;5.80;99.90;;;;;;4983419;28;20093;-60
2022/04/28 04:28:14;;;;;;;34.63;20.67;;;5.80;99.90;;;;;;4977367;28;20106;-58
2022/04/28 04:33:24;;;;;;;34.83;20.00;;;5.80;99.90;;;;;;4993916;28;20061;-55
2022/04/28 04:35:50;;;;;;;35.20;20.88;;;5.80;99.90;;;;;;4992099;28;20065;-57
2022/04/28 04:38:16;;;;;;;27.75;18.90;;;5.80;99.90;;;;;;4992953;28;20026;-59
2022/04/28 04:40:41;;;;;;;34.38;19.00;;;5.80;99.90;;;;;;4996038;28;20510;-57
2022/04/28 04:43:13;;;;;;;36.40;21.52;;;5.80;99.90;;;;;;4991959;28;20092;-60
2022/04/28 04:45:44;;;;;;;29.38;18.48;;;5.90;99.90;;;;;;4987495;28;20073;-57
2022/04/28 04:48:13;;;;;;;27.30;18.38;;;5.90;99.90;;;;;;4995346;28;20430;-60
2022/04/28 04:50:39;;;;;;;28.77;18.05;;;5.90;99.90;;;;;;4985424;28;20026;-60
2022/04/28 04:53:06;;;;;;;27.60;16.77;;;6.00;99.90;;;;;;4992719;28;20558;-56
2022/04/28 04:55:32;;;;;;;29.92;19.08;;;6.10;99.90;;;;;;4990990;28;20033;-57
2022/04/28 04:57:58;;;;;;;24.58;16.05;;;6.10;99.90;;;;;;4996820;28;20026;-58
2022/04/28 05:00:24;;;;;;;25.58;16.60;;;6.20;99.90;;;;;;4992846;28;20475;-58
2022/04/28 05:02:49;;;;;;;25.13;15.93;;;6.30;99.90;;;;;;4997499;28;20033;-60
2022/04/28 05:05:15;;;;;;;30.45;18.00;;;6.60;99.90;;;;;;4992156;28;20026;-59
2022/04/28 05:07:41;;;;;;;30.65;15.05;;;7.20;99.90;;;;;;4996657;28;20080;-59
2022/04/28 05:10:07;;;;;;;25.50;13.90;;;7.90;99.90;;;;;;4991512;28;20042;-59
2022/04/28 05:12:33;;;;;;;25.17;14.65;;;8.60;99.90;;;;;;4990503;28;20027;-59
2022/04/28 05:14:58;;;;;;;18.17;12.55;;;9.30;99.90;;;;;;4994457;28;20113;-61
2022/04/28 05:17:24;;;;;;;22.60;12.98;;;10.00;99.90;;;;;;4989373;28;20022;-57
2022/04/28 05:19:49;;;;;;;21.50;13.27;;;10.40;99.90;;;;;;4994285;28;20058;-60
2022/04/28 05:22:15;;;;;;;18.85;13.30;;;10.60;99.90;;;;;;4991976;28;20034;-60
2022/04/28 05:24:40;;;;;;;18.90;13.25;;;11.20;99.90;;;;;;4984598;28;20026;-55
2022/04/28 05:27:06;;;;;;;21.20;12.73;;;11.50;99.90;;;;;;4990523;28;20034;-59
2022/04/28 05:29:31;;;;;;;20.50;12.23;;;11.80;99.90;;;;;;4991892;28;20717;-55
2022/04/28 05:31:57;;;;;;;20.45;13.13;;;12.20;99.90;;;;;;4988901;28;20586;-59
2022/04/28 05:34:22;;;;;;;17.95;11.95;;;12.10;99.90;;;;;;4990595;28;20093;-57
2022/04/28 05:36:48;;;;;;;18.08;12.20;;;12.70;98.80;;;;;;4988535;28;20033;-58
2022/04/28 05:39:15;;;;;;;17.08;12.75;;;13.30;97.30;;;;;;4987021;28;20442;-57
2022/04/28 05:41:40;;;;;;;16.90;12.10;;;13.20;96.40;;;;;;4990732;28;20049;-54
2022/04/28 05:46:51;;;;;;;;;;;13.40;95.30;;;;;;4993490;28;20132;-57
2022/04/28 05:49:17;;;;;;;17.67;11.13;;;14.10;93.60;;;;;;4990279;28;20390;-58
2022/04/28 05:51:42;;;;;;;15.45;10.68;;;14.40;93.80;;;;;;4991934;28;20026;-57
2022/04/28 05:54:08;;;;;;;15.65;12.13;;;15.00;92.10;;;;;;4990876;28;20468;-58
2022/04/28 05:56:33;;;;;;;17.75;11.07;;;14.60;92.10;;;;;;4992347;28;20077;-57
2022/04/28 05:58:59;;;;;;;14.88;11.23;;;14.90;91.60;;;;;;4989769;28;20030;-57
2022/04/28 06:01:24;;;;;;;14.55;10.77;;;16.00;88.70;;;;;;4967109;28;20050;-60
2022/04/28 06:03:50;;;;;;;17.20;11.25;;;15.60;90.60;;;;;;4986900;28;20057;-54
2022/04/28 06:06:16;;;;;;;16.27;11.52;;;15.80;90.00;;;;;;4992306;28;20109;-58
2022/04/28 06:08:41;;;;;;;12.73;10.65;;;15.90;87.50;;;;;;4989791;28;20033;-59
2022/04/28 06:11:07;;;;;;;14.25;10.80;;;16.60;86.20;;;;;;4987850;28;20022;-58
2022/04/28 06:13:32;;;;;;;19.88;10.55;;;16.10;87.50;;;;;;4981206;28;20512;-57
2022/04/28 06:15:58;;;;;;;12.32;10.45;;;16.30;86.00;;;;;;4984940;28;20102;-58
2022/04/28 06:18:24;;;;;;;14.45;10.85;;;16.70;84.40;;;;;;4987036;28;20076;-59
2022/04/28 06:20:50;;;;;;;16.63;11.20;;;17.10;83.00;;;;;;4984176;28;20484;-60
2022/04/28 06:23:15;;;;;;;17.20;12.40;;;18.10;81.10;;;;;;4987674;28;20034;-55
2022/04/28 06:25:41;;;;;;;15.63;11.15;;;17.90;80.00;;;;;;4977666;28;20042;-60
2022/04/28 06:28:07;;;;;;;17.05;12.30;;;18.70;75.80;;;;;;4989617;28;20548;-53
2022/04/28 06:30:33;;;;;;;19.88;12.07;;;18.30;76.90;;;;;;4983378;28;20030;-60
2022/04/28 06:32:58;;;;;;;18.33;12.60;;;18.10;75.80;;;;;;4986500;28;20034;-59
2022/04/28 06:35:24;;;;;;;14.90;11.45;;;18.60;73.20;;;;;;4988797;28;20121;-58
2022/04/28 06:37:49;;;;;;;17.95;11.63;;;19.70;70.70;;;;;;4986919;28;20114;-60
2022/04/28 06:40:15;;;;;;;16.80;12.02;;;19.50;72.20;;;;;;4990001;28;20037;-59
2022/04/28 06:42:45;;;;;;;15.52;11.35;;;20.00;70.40;;;;;;4984957;28;20093;-58
2022/04/28 06:45:12;;;;;;;16.23;13.13;;;20.10;69.00;;;;;;4987867;28;20026;-60
2022/04/28 06:47:38;;;;;;;18.00;11.70;;;20.00;68.40;;;;;;4989461;28;20105;-60
2022/04/28 06:50:04;;;;;;;13.30;10.82;;;20.10;70.80;;;;;;4984437;28;20109;-60
2022/04/28 06:52:30;;;;;;;16.25;11.95;;;20.40;70.20;;;;;;4988450;28;20034;-59
2022/04/28 06:54:56;;;;;;;16.75;11.95;;;20.70;68.40;;;;;;4993304;28;20089;-60
2022/04/28 06:57:21;;;;;;;16.55;11.68;;;20.50;67.30;;;;;;4987844;28;20113;-60
2022/04/28 06:59:47;;;;;;;16.23;11.90;;;20.30;66.90;;;;;;4971552;28;20118;-59
2022/04/28 07:02:12;;;;;;;13.88;10.88;;;20.20;68.50;;;;;;4989807;28;20113;-60
2022/04/28 07:04:38;;;;;;;13.30;10.02;;;21.70;66.90;;;;;;4996131;28;20510;-58
2022/04/28 07:07:04;;;;;;;14.43;10.88;;;22.30;64.60;;;;;;4989262;28;20746;-60
2022/04/28 07:09:32;;;;;;;13.90;10.32;;;22.50;63.50;;;;;;4987647;28;20046;-56
2022/04/28 07:11:58;;;;;;;11.52;9.75;;;22.40;64.50;;;;;;4988970;28;20023;-59
2022/04/28 07:14:23;;;;;;;12.13;10.75;;;22.50;64.10;;;;;;4983826;28;20041;-61
2022/04/28 07:16:49;;;;;;;18.35;10.93;;;22.50;64.50;;;;;;4992104;28;20157;-58
2022/04/28 07:19:14;;;;;;;13.60;10.98;;;23.20;62.10;;;;;;4986540;28;20404;-60
2022/04/28 07:21:40;;;;;;;14.60;12.40;;;22.60;62.10;;;;;;4989756;28;20026;-59
2022/04/28 07:24:06;;;;;;;12.75;11.45;;;22.50;62.00;;;;;;4989903;28;20033;-58
2022/04/28 07:26:31;;;;;;;14.45;11.30;;;22.20;64.30;;;;;;4987553;28;20037;-60
2022/04/28 07:28:57;;;;;;;12.40;10.90;;;22.90;62.80;;;;;;4985313;28;20034;-58
2022/04/28 07:31:23;;;;;;;17.92;11.95;;;23.40;61.80;;;;;;4987005;28;20609;-60
2022/04/28 07:33:49;;;;;;;11.65;10.45;;;23.80;62.20;;;;;;4990802;28;20383;-59
2022/04/28 07:36:15;;;;;;;18.15;11.77;;;24.00;61.20;;;;;;4986338;28;20067;-60
2022/04/28 07:38:41;;;;;;;14.38;10.50;;;23.60;61.00;;;;;;4987963;28;20115;-57
2022/04/28 07:41:07;;;;;;;17.13;12.23;;;23.90;61.20;;;;;;4988210;28;20046;-59
2022/04/28 07:43:33;;;;;;;16.45;11.68;;;23.80;61.00;;;;;;4985551;28;20297;-58
2022/04/28 07:45:58;;;;;;;13.65;11.00;;;24.40;60.60;;;;;;4987902;28;20502;-61
2022/04/28 07:48:24;;;;;;;15.07;11.73;;;24.70;60.10;;;;;;4989976;28;20117;-59
2022/04/28 07:50:50;;;;;;;16.15;12.43;;;24.40;60.00;;;;;;4984684;28;20034;-58
2022/04/28 07:53:16;;;;;;;15.18;11.85;;;24.60;59.40;;;;;;4987528;28;20089;-60
2022/04/28 07:55:42;;;;;;;14.02;10.45;;;25.40;57.90;;;;;;4989637;28;20022;-59
2022/04/28 07:58:08;;;;;;;14.70;10.48;;;25.60;58.10;;;;;;4987576;28;20025;-60
2022/04/28 08:00:34;;;;;;;14.90;11.50;;;25.50;58.10;;;;;;4973571;28;20042;-60
2022/04/28 08:03:00;;;;;;;15.27;11.63;;;25.70;57.50;;;;;;4991979;28;20083;-60
2022/04/28 08:05:25;;;;;;;13.32;11.10;;;25.60;57.70;;;;;;4996541;28;20034;-51
2022/04/28 08:07:51;;;;;;;14.18;9.82;;;25.50;57.80;;;;;;4998589;28;20030;-60
2022/04/28 08:10:16;;;;;;;16.50;12.00;;;25.60;57.20;;;;;;4993259;28;20499;-58
2022/04/28 08:12:42;;;;;;;15.05;11.50;;;25.70;57.20;;;;;;4990075;28;20473;-58
2022/04/28 08:15:08;;;;;;;17.80;11.48;;;25.30;57.50;;;;;;4984792;28;20039;-60
2022/04/28 08:17:34;;;;;;;18.60;12.50;;;25.20;57.90;;;;;;4992233;28;20094;-57
2022/04/28 08:19:59;;;;;;;17.98;11.82;;;24.00;58.00;;;;;;4991886;28;20038;-59
2022/04/28 08:22:25;;;;;;;16.23;13.60;;;23.80;59.70;;;;;;4990997;28;20088;-58
2022/04/28 08:24:50;;;;;;;16.13;13.35;;;23.80;59.90;;;;;;4989483;28;20489;-61
2022/04/28 08:27:16;;;;;;;13.85;12.27;;;25.00;60.60;;;;;;4991805;28;20042;-61
2022/04/28 08:29:42;;;;;;;18.70;11.98;;;25.20;56.90;;;;;;4989697;28;20035;-59
2022/04/28 08:32:07;;;;;;;15.65;12.55;;;24.80;58.00;;;;;;4991020;28;20041;-59
2022/04/28 08:34:33;;;;;;;15.23;12.32;;;25.10;57.70;;;;;;4989576;28;20022;-58
2022/04/28 08:36:59;;;;;;;14.90;12.93;;;24.60;56.00;;;;;;4991838;28;20030;-58
2022/04/28 08:39:25;;;;;;;15.32;12.60;;;24.40;57.20;;;;;;4989477;28;20026;-60
2022/04/28 08:41:53;;;;;;;18.30;13.10;;;24.30;56.40;;;;;;4993219;28;20466;-60
2022/04/28 08:44:24;;;;;;;18.50;11.65;;;25.00;53.90;;;;;;4990347;28;20026;-57
2022/04/28 08:46:52;;;;;;;13.82;11.23;;;25.20;52.50;;;;;;4988708;28;20121;-60
2022/04/28 08:49:26;;;;;;;15.13;11.80;;;25.10;52.30;;;;;;4990063;28;20070;-60
2022/04/28 08:51:54;;;;;;;16.20;13.02;;;25.50;51.60;;;;;;4997733;28;20034;-58
2022/04/28 08:54:22;;;;;;;17.73;12.88;;;24.90;51.50;;;;;;4978184;28;20521;-58
2022/04/28 08:56:49;;;;;;;15.77;13.07;;;24.50;54.50;;;;;;4974472;28;20037;-59
2022/04/28 08:59:14;;;;;;;16.15;13.10;;;24.90;52.70;;;;;;4982786;28;20073;-59
2022/04/28 09:01:41;;;;;;;14.07;11.93;;;24.20;51.90;;;;;;4964802;28;20149;-56
2022/04/28 09:04:10;;;;;;;19.30;12.75;;;25.40;50.80;;;;;;4990387;28;20026;-60
2022/04/28 09:06:36;;;;;;;15.60;13.02;;;24.70;52.60;;;;;;4984581;28;20026;-57
2022/04/28 09:09:06;;;;;;;15.35;11.30;;;24.80;52.30;;;;;;4991628;28;20057;-58
2022/04/28 09:11:40;;;;;;;19.33;13.88;;;25.20;51.20;;;;;;4989063;28;20083;-54
2022/04/28 09:14:17;;;;;;;14.55;12.93;;;24.70;51.10;;;;;;4989181;28;20388;-60
2022/04/28 09:16:47;;;;;;;18.10;13.38;;;24.90;51.70;;;;;;5000478;28;20101;-61
2022/04/28 09:19:23;;;;;;;17.13;12.88;;;25.20;52.80;;;;;;4991666;28;20026;-60
2022/04/28 09:21:53;;;;;;;14.32;11.65;;;24.60;53.80;;;;;;4987177;28;20476;-60
2022/04/28 09:24:20;;;;;;;18.35;13.27;;;25.20;53.20;;;;;;4992242;28;20026;-61
2022/04/28 09:26:47;;;;;;;14.05;12.57;;;25.00;53.10;;;;;;4990644;28;20078;-60
2022/04/28 09:29:14;;;;;;;16.05;13.88;;;24.90;54.50;;;;;;4991233;28;20041;-62
2022/04/28 09:31:43;;;;;;;23.05;14.55;;;25.30;52.30;;;;;;4981064;28;20027;-60
2022/04/28 09:34:14;;;;;;;17.70;12.95;;;25.30;51.60;;;;;;4990721;28;20177;-61
2022/04/28 09:36:41;;;;;;;20.05;15.02;;;25.90;52.10;;;;;;4991568;28;20033;-60
2022/04/28 09:39:08;;;;;;;20.58;13.68;;;24.90;52.90;;;;;;4992478;28;20030;-62
2022/04/28 09:44:22;;;;;;;15.15;12.68;;;24.20;53.30;;;;;;4989933;28;20037;-60
2022/04/28 09:46:49;;;;;;;19.77;15.07;;;24.20;54.50;;;;;;4984336;28;20026;-61
2022/04/28 09:49:21;;;;;;;19.67;13.68;;;23.80;53.40;;;;;;4985662;28;20514;-60
2022/04/28 09:51:48;;;;;;;16.80;13.82;;;24.40;53.80;;;;;;4990661;28;20034;-57
2022/04/28 09:54:17;;;;;;;21.02;13.23;;;25.10;51.30;;;;;;4981205;28;20176;-59
2022/04/28 09:56:44;;;;;;;17.88;12.82;;;24.70;53.50;;;;;;4987859;28;20025;-61
2022/04/28 09:59:12;;;;;;;15.73;12.90;;;24.70;53.50;;;;;;4986310;28;20026;-57
2022/04/28 10:01:39;;;;;;;19.15;13.05;;;24.30;53.50;;;;;;4975988;28;20044;-59
2022/04/28 10:04:07;;;;;;;17.52;12.75;;;24.30;53.60;;;;;;4987810;28;20046;-58
2022/04/28 10:06:38;;;;;;;18.17;13.50;;;23.90;53.60;;;;;;4984207;28;20034;-58
2022/04/28 10:09:09;;;;;;;18.23;12.65;;;23.30;54.50;;;;;;4989955;28;20041;-59
2022/04/28 10:11:37;;;;;;;22.00;13.35;;;22.90;55.00;;;;;;4983257;28;20774;-57
2022/04/28 10:14:03;;;;;;;17.13;12.57;;;23.00;54.40;;;;;;4985311;28;20069;-56
2022/04/28 10:16:28;;;;;;;18.70;13.93;;;22.60;53.80;;;;;;4989105;28;20081;-53
2022/04/28 10:19:11;;;;;;;20.40;14.82;;;22.40;54.50;;;;;;4989859;28;20034;-55
2022/04/28 10:21:52;;;;;;;16.80;12.40;;;22.00;55.70;;;;;;4985461;28;20065;-58
2022/04/28 10:32:56;;;;;;;18.45;13.85;;;21.30;59.00;;;;;;4985317;28;20076;-58
2022/04/28 10:35:41;;;;;;;20.60;14.38;;;21.20;58.80;;;;;;4988229;28;20026;-56
2022/04/28 10:38:11;;;;;;;21.20;14.38;;;20.50;58.60;;;;;;4989188;28;20037;-52
2022/04/28 10:40:42;;;;;;;21.92;15.13;;;20.20;59.90;;;;;;4976192;28;20021;-59
2022/04/28 10:43:30;;;;;;;20.85;15.57;;;19.90;60.80;;;;;;4985561;28;20092;-56
2022/04/28 10:45:57;;;;;;;22.17;14.77;;;19.80;63.40;;;;;;4991008;28;20034;-58
2022/04/28 10:48:42;;;;;;;18.42;14.60;;;19.80;62.10;;;;;;4985452;28;20061;-57
2022/04/28 10:51:18;;;;;;;17.33;13.93;;;20.40;60.90;;;;;;4979444;28;20038;-57
2022/04/28 10:54:03;;;;;;;21.98;14.05;;;20.30;61.60;;;;;;4985174;28;20019;-58
2022/04/28 10:57:02;;;;;;;19.83;14.00;;;20.20;60.20;;;;;;4986111;28;20042;-59
2022/04/28 10:59:31;;;;;;;18.35;14.63;;;20.40;60.50;;;;;;4987178;28;20022;-57
2022/04/28 11:02:09;;;;;;;19.08;14.00;;;20.50;59.00;;;;;;4984330;28;20066;-57
2022/04/28 11:04:36;;;;;;;18.95;13.57;;;20.50;61.20;;;;;;4985066;28;20051;-57
2022/04/28 11:07:07;;;;;;;16.52;12.38;;;20.70;60.80;;;;;;4984946;28;20037;-57
2022/04/28 11:09:44;;;;;;;19.42;13.70;;;20.80;60.50;;;;;;4986824;28;20431;-52
2022/04/28 11:12:17;;;;;;;21.25;13.43;;;20.70;59.70;;;;;;4986517;28;20036;-59
2022/04/28 11:14:59;;;;;;;18.50;13.75;;;20.60;62.00;;;;;;4989762;28;20476;-57
2022/04/28 11:17:26;;;;;;;19.13;13.88;;;20.70;60.00;;;;;;4986128;28;20085;-55
2022/04/28 11:19:53;;;;;;;16.02;12.70;;;20.50;59.90;;;;;;4988262;28;20018;-56
2022/04/28 11:22:18;;;;;;;22.45;11.68;;;20.60;60.60;;;;;;4992866;28;20102;-57
2022/04/28 11:24:45;;;;;;;19.08;12.60;;;20.80;61.70;;;;;;4985942;28;20687;-59
2022/04/28 11:27:15;;;;;;;18.65;11.90;;;21.00;60.10;;;;;;4993559;28;20029;-56
2022/04/28 11:29:42;;;;;;;17.88;12.82;;;21.10;59.90;;;;;;4986041;28;20034;-59
2022/04/28 11:32:11;;;;;;;14.35;11.13;;;21.10;56.90;;;;;;4987814;28;20038;-58
2022/04/28 11:34:37;;;;;;;18.35;11.85;;;21.10;57.70;;;;;;4980429;28;20391;-50
2022/04/28 11:37:17;;;;;;;19.70;12.77;;;21.30;57.40;;;;;;5004379;28;20106;-58
2022/04/28 11:39:48;;;;;;;17.15;11.70;;;21.10;57.60;;;;;;4979671;28;20388;-57
2022/04/28 11:42:18;;;;;;;21.10;12.68;;;20.70;58.80;;;;;;4980226;28;20491;-58
2022/04/28 11:44:50;;;;;;;17.35;11.88;;;20.60;57.60;;;;;;4991001;28;20023;-60
2022/04/28 11:47:16;;;;;;;17.85;12.13;;;20.30;58.10;;;;;;4989500;28;20068;-58
2022/04/28 11:49:42;;;;;;;16.90;12.70;;;20.40;57.80;;;;;;4986397;28;20026;-60
2022/04/28 11:52:28;;;;;;;14.73;10.60;;;20.40;59.10;;;;;;4992774;28;20065;-61
2022/04/28 11:54:59;;;;;;;18.63;11.73;;;20.40;57.40;;;;;;4984615;28;20133;-60
2022/04/28 11:57:24;;;;;;;17.90;9.50;;;20.60;57.40;;;;;;4988798;28;20039;-61
2022/04/28 11:59:51;;;;;;;11.40;8.93;;;20.60;55.50;;;;;;4983399;28;20487;-59
2022/04/28 12:02:34;;;;;;;14.68;10.07;;;20.40;55.30;;;;;;4971446;28;20508;-57
2022/04/28 12:05:25;;;;;;;15.43;10.33;;;20.30;55.60;;;;;;4987512;28;20031;-57
2022/04/28 12:07:52;;;;;;;15.80;10.60;;;20.40;57.00;;;;;;4983774;28;20038;-59
2022/04/28 12:16:04;;;;;;;11.02;8.60;;;20.30;56.80;;;;;;4984178;28;20553;-59
2022/04/28 12:21:21;;;;;;;12.82;7.70;;;20.50;53.80;;;;;;4981784;28;20803;-58
2022/04/28 12:23:50;;;;;;;16.77;11.40;;;20.30;53.90;;;;;;4987806;28;20190;-57
2022/04/28 12:26:19;;;;;;;12.25;9.32;;;20.10;54.50;;;;;;4983600;28;20285;-58
2022/04/28 12:28:45;;;;;;;14.70;10.40;;;20.00;54.90;;;;;;4982746;28;20031;-55
2022/04/28 12:31:25;;;;;;;13.68;9.32;;;19.70;56.20;;;;;;4984518;28;20061;-57
2022/04/28 12:33:50;;;;;;;12.13;9.77;;;19.80;58.40;;;;;;4983528;28;20026;-57
2022/04/28 12:36:16;;;;;;;12.25;9.25;;;19.80;56.60;;;;;;4981546;28;20490;-58
2022/04/28 12:38:46;;;;;;;17.38;9.88;;;19.90;56.20;;;;;;4979880;28;20038;-58
2022/04/28 12:41:16;;;;;;;18.10;9.63;;;19.70;58.30;;;;;;4984514;28;20030;-58
2022/04/28 12:43:44;;;;;;;14.73;10.25;;;19.80;59.00;;;;;;4983289;28;20024;-59
2022/04/28 12:46:10;;;;;;;17.63;11.52;;;19.80;58.40;;;;;;4978790;28;20492;-58
2022/04/28 12:48:37;;;;;;;16.30;10.18;;;19.60;56.10;;;;;;4996056;28;20041;-60
2022/04/28 12:51:09;;;;;;;22.15;11.48;;;19.60;55.60;;;;;;4986959;28;20121;-59
2022/04/28 12:53:35;;;;;;;11.63;8.95;;;19.50;55.20;;;;;;4992833;28;20033;-51
2022/04/28 12:56:08;;;;;;;15.63;10.30;;;19.50;55.50;;;;;;4991048;28;20030;-59
2022/04/28 12:58:39;;;;;;;17.45;10.75;;;19.50;56.90;;;;;;4991263;28;20029;-60
2022/04/28 13:01:09;;;;;;;13.45;9.90;;;19.10;56.00;;;;;;4975891;28;20034;-55
2022/04/28 13:03:34;;;;;;;15.38;10.45;;;19.10;57.10;;;;;;4989112;28;20036;-59
2022/04/28 13:06:00;;;;;;;13.95;9.10;;;18.90;55.30;;;;;;4991845;28;20039;-58
2022/04/28 13:08:25;;;;;;;13.85;10.30;;;19.00;56.20;;;;;;4988404;28;20026;-58
2022/04/28 13:10:52;;;;;;;14.68;9.70;;;18.80;57.10;;;;;;4985871;28;20559;-57